Time;durP1;ratioP1;P1;durP2;ratioP2;P2;SDS_P1;SDS_P2;PMS_P1;PMS_P2;Temp;Humidity;BMP_temperature;BMP_pressure;BME280_temperature;BME280_humidity;BME280_pressure;Samples;Min_cycle;Max_cycle;Signal;HPM_P1;HPM_P2
2024/04/15 00:00:18;;;;;;;7.10;2.17;;;;;;;13.71;46.76;95122.69;5486133;26;20002;-66
2024/04/15 00:02:44;;;;;;;4.05;2.00;;;;;;;13.55;47.28;95127.66;5488313;26;20010;-66
2024/04/15 00:05:09;;;;;;;3.13;1.80;;;;;;;13.56;47.45;95109.22;5517185;26;19998;-66
2024/04/15 00:07:35;;;;;;;3.47;1.98;;;;;;;13.37;47.73;95111.84;5486723;26;20013;-67
2024/04/15 00:10:00;;;;;;;3.92;2.20;;;;;;;13.41;48.36;95119.25;5486916;26;20114;-66
2024/04/15 00:12:25;;;;;;;2.53;1.80;;;;;;;13.38;47.58;95119.53;5486215;26;20006;-66
2024/04/15 00:14:51;;;;;;;6.82;2.10;;;;;;;13.35;47.35;95108.56;5486421;26;19998;-66
2024/04/15 00:17:16;;;;;;;5.20;2.03;;;;;;;13.31;47.44;95117.59;5486947;26;20002;-66
2024/04/15 00:19:42;;;;;;;3.72;2.10;;;;;;;13.31;47.21;95118.41;5487855;26;20006;-66
2024/04/15 00:22:07;;;;;;;4.80;2.25;;;;;;;13.11;47.85;95107.13;5485306;26;20009;-67
2024/04/15 00:24:33;;;;;;;3.42;2.20;;;;;;;13.16;48.04;95111.94;5485400;26;20655;-66
2024/04/15 00:26:58;;;;;;;4.22;2.40;;;;;;;13.12;48.56;95107.94;5486409;26;19998;-66
2024/04/15 00:29:24;;;;;;;4.80;2.25;;;;;;;13.08;48.55;95103.97;5488188;26;20030;-66
2024/04/15 00:31:49;;;;;;;5.20;2.50;;;;;;;13.09;48.87;95097.78;5486566;26;20010;-67
2024/04/15 00:34:15;;;;;;;5.93;2.28;;;;;;;13.10;49.16;95109.88;5516779;26;20353;-66
2024/04/15 00:36:42;;;;;;;4.65;2.50;;;;;;;13.00;49.86;95096.81;5488475;26;20002;-66
2024/04/15 00:39:08;;;;;;;4.78;2.42;;;;;;;13.11;49.66;95098.47;5487514;26;20002;-66
2024/04/15 00:41:33;;;;;;;3.90;2.35;;;;;;;12.92;50.74;95092.25;5487350;26;20092;-66
2024/04/15 00:43:59;;;;;;;4.00;2.58;;;;;;;12.91;50.38;95111.47;5488182;26;20034;-66
2024/04/15 00:46:24;;;;;;;4.07;2.55;;;;;;;12.82;50.40;95096.66;5488153;26;20645;-66
2024/04/15 00:48:49;;;;;;;4.68;2.63;;;;;;;12.91;50.15;95098.44;5453816;26;20026;-66
2024/04/15 00:51:15;;;;;;;4.25;2.50;;;;;;;12.52;50.71;95068.84;5514699;26;20001;-66
2024/04/15 00:53:41;;;;;;;2.95;2.13;;;;;;;12.73;51.50;95097.44;5455689;26;20034;-66
2024/04/15 00:56:06;;;;;;;5.20;2.65;;;;;;;12.74;51.73;95104.31;5516964;26;19998;-67
2024/04/15 00:58:32;;;;;;;7.03;2.55;;;;;;;12.65;52.09;95100.72;5485533;26;20331;-66
2024/04/15 01:00:57;;;;;;;3.95;2.00;;;;;;;12.65;51.65;95089.47;5510243;26;20009;-66
2024/04/15 01:03:24;;;;;;;3.05;2.40;;;;;;;12.78;51.65;95094.44;5447911;26;20340;-66
2024/04/15 01:05:49;;;;;;;4.88;2.60;;;;;;;12.66;51.90;95094.53;5485204;26;20505;-66
2024/04/15 01:08:15;;;;;;;7.70;2.80;;;;;;;12.50;52.54;95094.22;5485893;26;19994;-67
2024/04/15 01:10:40;;;;;;;4.63;2.88;;;;;;;12.48;52.60;95089.16;5485357;26;19994;-66
2024/04/15 01:13:06;;;;;;;4.13;2.88;;;;;;;12.53;52.62;95081.72;5516025;26;20027;-66
2024/04/15 01:15:31;;;;;;;4.20;2.63;;;;;;;12.62;52.08;95092.31;5485987;26;20440;-66
2024/04/15 01:17:57;;;;;;;3.95;2.75;;;;;;;12.60;52.33;95086.44;5490743;26;20069;-66
2024/04/15 01:20:23;;;;;;;3.65;2.72;;;;;;;12.60;51.89;95089.03;5488998;26;19998;-67
2024/04/15 01:22:55;;;;;;;3.47;2.47;;;;;;;12.53;52.30;95096.53;5519462;26;20010;-67
2024/04/15 01:25:21;;;;;;;3.53;2.30;;;;;;;12.55;52.42;95088.63;5490092;26;19998;-66
2024/04/15 01:27:46;;;;;;;3.50;2.50;;;;;;;12.47;52.51;95081.44;5520319;25;20362;-66
2024/04/15 01:30:12;;;;;;;3.60;2.80;;;;;;;12.58;52.31;95096.16;5519528;26;19994;-66
2024/04/15 01:32:37;;;;;;;4.20;2.88;;;;;;;12.60;52.70;95092.47;5488697;26;20046;-66
2024/04/15 01:35:03;;;;;;;3.72;2.55;;;;;;;12.59;53.22;95082.16;5488934;26;20009;-66
2024/04/15 01:37:28;;;;;;;4.03;2.45;;;;;;;12.48;52.57;95098.72;5490493;26;20396;-67
2024/04/15 01:39:54;;;;;;;7.03;2.95;;;;;;;12.48;53.63;95090.91;5490529;26;19994;-66
2024/04/15 01:42:19;;;;;;;4.35;2.65;;;;;;;12.42;53.59;95088.81;5489578;26;19998;-66
2024/04/15 01:44:44;;;;;;;4.32;2.45;;;;;;;12.53;53.06;95096.53;5519993;25;20441;-66
2024/04/15 01:47:10;;;;;;;5.45;2.60;;;;;;;12.43;53.37;95090.50;5489151;26;20002;-66
2024/04/15 01:49:35;;;;;;;5.93;2.70;;;;;;;12.35;53.29;95092.94;5488708;26;20036;-66
2024/04/15 01:52:00;;;;;;;7.85;2.75;;;;;;;12.28;53.42;95101.25;5428458;26;20034;-66
2024/04/15 01:54:26;;;;;;;5.70;2.65;;;;;;;12.28;54.65;95090.81;5491056;26;20004;-66
2024/04/15 01:56:51;;;;;;;5.65;2.40;;;;;;;12.17;53.98;95095.31;5489195;26;19998;-66
2024/04/15 01:59:17;;;;;;;3.50;2.58;;;;;;;12.08;54.45;95100.31;5488866;26;20027;-66
2024/04/15 02:01:42;;;;;;;4.18;2.58;;;;;;;11.96;55.31;95093.56;5490367;26;20440;-66
2024/04/15 02:04:07;;;;;;;4.60;2.70;;;;;;;11.99;55.04;95098.50;5490647;26;20444;-66
2024/04/15 02:06:33;;;;;;;4.70;2.50;;;;;;;12.02;54.46;95090.44;5489731;26;20013;-67
2024/04/15 02:08:58;;;;;;;5.85;2.45;;;;;;;11.96;54.45;95087.53;5490382;26;20002;-66
2024/04/15 02:11:24;;;;;;;3.83;2.28;;;;;;;11.92;54.14;95076.53;5489694;26;20017;-66
2024/04/15 02:13:49;;;;;;;5.65;2.53;;;;;;;11.96;54.93;95080.53;5488916;26;20046;-66
2024/04/15 02:16:14;;;;;;;4.20;2.63;;;;;;;11.74;55.55;95089.28;5489922;26;20508;-66
2024/04/15 02:18:40;;;;;;;3.97;2.70;;;;;;;11.71;55.74;95086.94;5550447;25;20456;-66
2024/04/15 02:21:05;;;;;;;4.43;2.42;;;;;;;11.60;55.74;95061.81;5489046;26;22227;-67
2024/04/15 02:23:31;;;;;;;5.93;2.63;;;;;;;11.62;56.09;95078.13;5488694;26;20448;-66
2024/04/15 02:56:22;;;;;;;;;;;;;;;11.79;55.92;95057.69;5471223;26;20031;-67
2024/04/15 02:58:48;;;;;;;4.45;2.42;;;;;;;11.55;56.57;95048.34;5457406;26;20318;-66
2024/04/15 03:01:13;;;;;;;4.35;3.20;;;;;;;11.31;57.68;95056.41;5489249;26;20017;-66
2024/04/15 03:03:38;;;;;;;4.68;2.70;;;;;;;11.59;56.20;95051.53;5487902;26;20021;-66
2024/04/15 03:06:04;;;;;;;6.30;2.70;;;;;;;11.47;56.29;95053.34;5487967;26;20074;-66
2024/04/15 03:08:29;;;;;;;3.90;2.60;;;;;;;11.50;56.06;95049.69;5487493;26;19998;-66
2024/04/15 03:10:55;;;;;;;4.90;2.90;;;;;;;11.59;55.90;95059.34;5548072;25;19998;-66
2024/04/15 03:13:20;;;;;;;3.22;2.47;;;;;;;11.60;56.03;95056.59;5489267;26;20038;-66
2024/04/15 03:15:55;;;;;;;3.85;2.65;;;;;;;11.65;55.88;95058.84;5487244;26;20078;-66
2024/04/15 03:18:20;;;;;;;5.45;2.97;;;;;;;11.60;55.89;95055.78;5488413;26;20077;-66
2024/04/15 03:20:46;;;;;;;7.10;2.85;;;;;;;11.61;55.57;95058.25;5488858;26;20440;-66
2024/04/15 03:23:11;;;;;;;3.78;2.40;;;;;;;11.48;57.26;95049.81;5487717;26;20066;-66
2024/04/15 03:25:37;;;;;;;4.88;2.63;;;;;;;11.50;57.63;95060.09;5489508;26;20267;-66
2024/04/15 03:28:02;;;;;;;4.22;2.83;;;;;;;11.29;58.41;95062.69;5488680;26;20005;-66
2024/04/15 03:30:28;;;;;;;6.13;2.90;;;;;;;11.34;58.36;95056.16;5488963;26;19998;-66
2024/04/15 03:32:53;;;;;;;4.40;2.58;;;;;;;11.04;58.67;95056.88;5549831;25;20070;-66
2024/04/15 03:35:18;;;;;;;3.60;2.58;;;;;;;11.03;58.89;95049.19;5488697;26;20002;-66
2024/04/15 03:37:44;;;;;;;6.07;2.90;;;;;;;11.04;58.29;95063.84;5486885;26;20375;-67
2024/04/15 03:40:09;;;;;;;3.63;2.60;;;;;;;10.92;58.56;95058.69;5487985;26;19998;-66
2024/04/15 03:42:35;;;;;;;8.55;2.78;;;;;;;11.11;57.47;95058.00;5545401;25;20002;-66
2024/04/15 03:45:00;;;;;;;4.05;2.50;;;;;;;11.05;57.88;95060.28;5486692;26;20432;-66
2024/04/15 03:47:25;;;;;;;4.63;3.05;;;;;;;11.04;57.76;95054.28;5488966;26;20041;-66
2024/04/15 03:49:51;;;;;;;3.95;2.80;;;;;;;10.95;58.13;95049.81;5486838;26;20005;-66
2024/04/15 03:52:16;;;;;;;6.32;2.70;;;;;;;11.01;59.10;95054.53;5488746;26;19994;-66
2024/04/15 03:54:42;;;;;;;3.00;2.45;;;;;;;10.91;59.74;95059.63;5487522;26;20031;-66
2024/04/15 03:57:07;;;;;;;4.50;2.58;;;;;;;10.94;60.52;95061.97;5486401;26;20038;-67
2024/04/15 03:59:33;;;;;;;4.10;2.60;;;;;;;10.98;58.79;95057.38;5488322;26;20039;-66
2024/04/15 04:01:58;;;;;;;4.40;2.78;;;;;;;11.04;59.00;95062.06;5488512;26;20341;-66
2024/04/15 04:04:23;;;;;;;4.18;2.80;;;;;;;11.01;60.22;95059.72;5517703;26;20087;-66
2024/04/15 04:06:49;;;;;;;5.47;2.58;;;;;;;10.97;60.59;95068.69;5486528;26;20001;-66
2024/04/15 04:09:14;;;;;;;3.75;2.45;;;;;;;10.77;60.64;95048.69;5549024;25;20071;-66
2024/04/15 04:11:40;;;;;;;4.60;2.85;;;;;;;10.97;60.96;95073.91;5485879;26;20009;-67
2024/04/15 04:14:05;;;;;;;3.55;2.70;;;;;;;10.78;61.49;95073.72;5488045;26;20006;-67
2024/04/15 04:16:31;;;;;;;4.40;2.72;;;;;;;10.79;61.15;95072.78;5547273;25;19998;-66
2024/04/15 04:18:56;;;;;;;3.83;2.70;;;;;;;10.81;61.14;95068.28;5517944;26;19994;-66
2024/04/15 04:21:22;;;;;;;3.95;2.72;;;;;;;10.48;62.20;95070.84;5456601;26;20039;-66
2024/04/15 04:23:47;;;;;;;3.25;2.60;;;;;;;10.50;62.74;95068.09;5486908;26;19998;-66
2024/04/15 04:26:12;;;;;;;3.83;2.75;;;;;;;10.17;63.42;95071.50;5488490;26;19993;-66
2024/04/15 04:28:38;;;;;;;3.92;2.88;;;;;;;10.07;64.32;95081.78;5488047;26;20379;-66
2024/04/15 04:31:03;;;;;;;3.97;2.75;;;;;;;10.23;63.90;95079.69;5487878;26;19994;-66
2024/04/15 04:33:29;;;;;;;6.38;2.90;;;;;;;10.10;64.61;95060.78;5456718;26;20428;-66
2024/04/15 04:35:55;;;;;;;4.18;2.50;;;;;;;10.04;65.00;95071.66;5483834;26;20063;-67
2024/04/15 04:38:20;;;;;;;5.40;3.05;;;;;;;10.09;65.49;95071.31;5485892;26;20401;-66
2024/04/15 04:40:46;;;;;;;4.28;2.78;;;;;;;10.14;65.04;95067.41;5485190;26;20000;-67
2024/04/15 04:43:11;;;;;;;5.07;2.90;;;;;;;10.17;65.75;95068.91;5453472;26;19998;-66
2024/04/15 04:45:36;;;;;;;5.70;2.90;;;;;;;10.40;65.02;95070.59;5454999;26;19995;-67
2024/04/15 04:48:02;;;;;;;9.52;2.92;;;;;;;10.23;64.94;95061.50;5484450;26;20485;-66
2024/04/15 04:50:27;;;;;;;5.65;3.28;;;;;;;10.58;65.10;95065.72;5468805;26;20002;-66
2024/04/15 04:52:53;;;;;;;5.15;2.90;;;;;;;10.63;64.38;95066.19;5488766;26;20030;-67
2024/04/15 04:55:18;;;;;;;5.28;2.92;;;;;;;10.97;63.91;95066.09;5491546;26;20454;-67
2024/04/15 04:57:44;;;;;;;6.07;3.22;;;;;;;11.14;63.33;95050.00;5485975;26;20002;-66
2024/04/15 05:00:09;;;;;;;4.70;2.95;;;;;;;11.58;62.97;95066.31;5458520;26;20070;-67
2024/04/15 05:02:35;;;;;;;4.50;2.95;;;;;;;12.01;59.97;95062.75;5487670;26;20329;-67
2024/04/15 05:05:00;;;;;;;6.47;3.28;;;;;;;11.79;61.07;95068.09;5490560;26;19994;-66
2024/04/15 05:07:26;;;;;;;6.80;3.08;;;;;;;12.35;60.86;95059.88;5517735;25;20447;-67
2024/04/15 05:09:51;;;;;;;4.43;3.22;;;;;;;12.45;60.80;95060.75;5489588;26;19994;-66
2024/04/15 05:12:16;;;;;;;4.80;2.90;;;;;;;12.61;61.24;95065.44;5484537;26;20476;-66
2024/04/15 05:14:42;;;;;;;9.82;3.25;;;;;;;12.85;58.43;95054.66;5477558;26;20311;-66
2024/04/15 05:17:09;;;;;;;3.85;2.65;;;;;;;13.36;60.42;95058.84;5484105;26;20022;-66
2024/04/15 05:19:34;;;;;;;4.90;2.70;;;;;;;13.58;58.09;95051.69;5480301;26;20498;-67
2024/04/15 05:21:59;;;;;;;8.27;3.38;;;;;;;13.91;55.82;95060.00;5475978;26;19994;-67
2024/04/15 05:24:25;;;;;;;6.28;2.97;;;;;;;14.27;56.55;95055.75;5484877;26;19996;-66
2024/04/15 05:26:50;;;;;;;11.38;3.70;;;;;;;14.33;54.30;95064.81;5484885;26;19990;-67
2024/04/15 05:29:16;;;;;;;10.85;3.60;;;;;;;14.75;53.42;95057.34;5490580;26;19994;-66
2024/04/15 05:31:41;;;;;;;6.78;3.38;;;;;;;15.09;53.59;95060.13;5485437;26;20009;-67
2024/04/15 05:34:07;;;;;;;11.70;3.75;;;;;;;15.51;51.56;95063.97;5490485;26;19994;-67
2024/04/15 05:36:32;;;;;;;5.82;2.92;;;;;;;15.83;52.93;95058.19;5486538;26;20421;-67
2024/04/15 05:38:57;;;;;;;9.48;4.00;;;;;;;16.01;51.01;95055.50;5459125;26;19994;-68
2024/04/15 05:41:23;;;;;;;12.70;4.65;;;;;;;15.86;50.09;95057.88;5487347;26;20009;-68
2024/04/15 05:43:48;;;;;;;18.55;6.03;;;;;;;15.95;49.52;95051.72;5487538;26;20443;-67
2024/04/15 05:46:13;;;;;;;9.40;6.57;;;;;;;16.01;48.92;95051.09;5487465;26;19994;-67
2024/04/15 05:48:39;;;;;;;15.40;6.20;;;;;;;16.23;48.37;95059.41;5486979;26;19998;-67
2024/04/15 05:51:04;;;;;;;9.70;5.47;;;;;;;15.34;50.98;95052.53;5487930;26;20055;-67
2024/04/15 05:53:30;;;;;;;15.98;5.90;;;;;;;14.92;51.88;95047.88;5488806;26;20473;-67
2024/04/15 05:55:56;;;;;;;13.38;5.72;;;;;;;15.57;49.99;95043.25;5489531;26;20018;-67
2024/04/15 05:58:21;;;;;;;9.90;5.85;;;;;;;15.65;51.08;95050.31;5486950;26;20440;-67
2024/04/15 06:00:47;;;;;;;10.73;5.00;;;;;;;15.94;49.55;95051.88;5479865;26;20042;-67
2024/04/15 06:03:12;;;;;;;8.93;4.88;;;;;;;16.28;49.65;95041.41;5425252;26;20022;-67
2024/04/15 06:05:37;;;;;;;11.57;5.10;;;;;;;16.25;49.00;95036.50;5487850;26;20005;-67
2024/04/15 06:08:03;;;;;;;13.00;4.70;;;;;;;16.42;48.83;95032.97;5427086;26;20841;-67
2024/04/15 06:10:29;;;;;;;9.82;4.68;;;;;;;16.23;48.75;95047.13;5484455;26;20067;-67
2024/04/15 06:12:54;;;;;;;6.72;4.40;;;;;;;16.46;47.52;95033.47;5486206;26;19994;-67
2024/04/15 06:15:20;;;;;;;6.63;4.93;;;;;;;16.61;47.54;95029.28;5487839;26;20035;-67
2024/04/15 06:17:46;;;;;;;7.95;4.75;;;;;;;16.71;47.39;95035.19;5486701;26;20088;-67
2024/04/15 06:20:11;;;;;;;8.02;4.32;;;;;;;16.80;47.28;95030.84;5454797;26;20526;-67
2024/04/15 06:22:36;;;;;;;7.38;4.55;;;;;;;16.30;48.29;95016.69;5485306;26;19994;-67
2024/04/15 06:25:02;;;;;;;12.63;5.00;;;;;;;16.01;49.45;95010.97;5486796;26;20001;-67
2024/04/15 06:27:27;;;;;;;12.25;5.40;;;;;;;16.54;48.38;95013.31;5485019;26;19998;-67
2024/04/15 06:29:53;;;;;;;11.23;4.95;;;;;;;15.92;50.10;94986.53;5454609;26;19994;-67
2024/04/15 06:32:18;;;;;;;11.70;5.40;;;;;;;16.03;50.19;95016.88;5485912;26;19990;-67
2024/04/15 06:34:43;;;;;;;9.55;5.20;;;;;;;16.62;49.62;95017.78;5490593;26;20383;-67
2024/04/15 06:37:09;;;;;;;9.48;5.00;;;;;;;16.92;48.83;95013.81;5488716;26;19990;-67
2024/04/15 06:39:34;;;;;;;9.25;5.03;;;;;;;16.77;48.14;95004.94;5490746;26;20009;-67
2024/04/15 06:42:00;;;;;;;16.85;5.25;;;;;;;17.31;47.81;95001.88;5488474;26;20366;-67
2024/04/15 06:44:26;;;;;;;12.00;5.22;;;;;;;17.12;47.11;95010.88;5490546;26;20424;-67
2024/04/15 06:46:51;;;;;;;8.40;4.40;;;;;;;16.93;48.33;94998.88;5490037;26;19998;-67
2024/04/15 06:49:17;;;;;;;10.45;4.60;;;;;;;16.97;48.07;95000.22;5427911;26;20034;-67
2024/04/15 06:51:42;;;;;;;10.75;5.15;;;;;;;16.95;48.53;95002.16;5488398;26;20006;-67
2024/04/15 06:54:08;;;;;;;9.00;4.25;;;;;;;17.01;48.37;94990.22;5488319;26;20030;-67
2024/04/15 06:56:34;;;;;;;8.27;4.30;;;;;;;17.11;48.34;94996.13;5489653;26;19994;-67
2024/04/15 06:58:59;;;;;;;11.65;4.57;;;;;;;17.15;47.90;94992.19;5457627;26;20001;-67
2024/04/15 07:01:25;;;;;;;10.95;3.50;;;;;;;17.00;46.53;94985.94;5487860;26;20005;-67
2024/04/15 07:03:50;;;;;;;4.80;3.60;;;;;;;17.54;46.33;94991.53;5490190;26;19995;-68
2024/04/15 07:06:16;;;;;;;9.13;3.47;;;;;;;17.80;44.04;94980.84;5489710;26;20002;-67
2024/04/15 07:08:43;;;;;;;6.85;2.90;;;;;;;17.66;42.46;94990.19;5488162;26;20002;-67
2024/04/15 07:11:09;;;;;;;6.70;3.15;;;;;;;17.68;43.03;94990.84;5487987;26;20024;-67
2024/04/15 07:13:34;;;;;;;7.95;3.47;;;;;;;17.79;43.31;94987.09;5488442;26;20002;-67
2024/04/15 07:15:59;;;;;;;5.38;3.45;;;;;;;17.80;43.44;94980.84;5487612;26;20031;-67
2024/04/15 07:18:25;;;;;;;5.88;3.28;;;;;;;18.02;42.00;94974.06;5489552;26;19994;-67
2024/04/15 07:20:50;;;;;;;6.22;2.95;;;;;;;18.05;41.01;94981.59;5489471;26;20440;-67
2024/04/15 07:23:16;;;;;;;7.53;3.03;;;;;;;18.79;40.62;94978.72;5489806;26;20357;-68
2024/04/15 07:25:41;;;;;;;9.88;3.70;;;;;;;18.83;40.91;94975.53;5489760;26;19994;-68
2024/04/15 07:28:06;;;;;;;4.63;3.38;;;;;;;19.40;39.75;94980.41;5457026;26;20004;-68
2024/04/15 07:30:32;;;;;;;9.73;3.17;;;;;;;19.82;38.43;94957.19;5489646;26;20433;-68
2024/04/15 07:32:57;;;;;;;10.27;7.03;;;;;;;20.04;38.72;94977.38;5489432;26;20332;-68
2024/04/15 07:35:23;;;;;;;8.77;4.22;;;;;;;19.48;40.48;94976.09;5489542;26;20035;-68
2024/04/15 07:37:48;;;;;;;7.55;3.90;;;;;;;19.05;40.83;94966.00;5489230;26;20035;-68
2024/04/15 07:40:13;;;;;;;8.15;4.05;;;;;;;19.56;40.59;94963.66;5457942;26;20111;-68
2024/04/15 07:42:40;;;;;;;7.43;3.80;;;;;;;19.09;41.03;94969.94;5487697;26;20405;-68
2024/04/15 07:45:06;;;;;;;13.63;4.03;;;;;;;19.12;40.90;94963.53;5457176;26;20018;-68
2024/04/15 07:47:31;;;;;;;9.23;3.20;;;;;;;19.71;39.79;94954.97;5457504;26;19994;-68
2024/04/15 07:49:57;;;;;;;6.90;3.55;;;;;;;20.25;38.95;94952.91;5487575;26;20336;-68
2024/04/15 07:52:22;;;;;;;5.78;3.15;;;;;;;20.31;38.45;94944.25;5456650;26;19994;-67
2024/04/15 07:54:47;;;;;;;6.72;3.70;;;;;;;19.75;39.31;94950.97;5487390;26;20017;-67
2024/04/15 07:57:13;;;;;;;18.05;3.70;;;;;;;19.67;39.28;94928.19;5487286;26;20042;-67
2024/04/15 07:59:38;;;;;;;8.40;3.20;;;;;;;20.01;38.91;94925.00;5489000;26;20356;-68
2024/04/15 08:02:04;;;;;;;9.98;3.10;;;;;;;20.46;36.17;94925.75;5489100;26;20039;-68
2024/04/15 08:04:29;;;;;;;8.18;3.20;;;;;;;20.06;38.13;94938.47;5489296;26;20437;-67
2024/04/15 08:06:54;;;;;;;5.55;3.13;;;;;;;19.93;38.10;94926.91;5486799;26;19998;-67
2024/04/15 08:09:20;;;;;;;6.78;3.17;;;;;;;20.09;37.55;94926.72;5487224;26;20480;-66
2024/04/15 08:11:45;;;;;;;9.50;3.30;;;;;;;20.14;37.81;94923.53;5489002;26;20010;-67
2024/04/15 08:14:11;;;;;;;7.70;3.05;;;;;;;20.33;37.77;94932.69;5488827;26;19994;-67
2024/04/15 08:16:37;;;;;;;5.57;3.45;;;;;;;20.62;37.48;94913.41;5488845;26;20030;-66
2024/04/15 08:19:02;;;;;;;6.97;3.75;;;;;;;20.47;37.19;94918.66;5488850;26;20002;-67
2024/04/15 08:21:28;;;;;;;9.40;3.00;;;;;;;20.70;37.74;94914.09;5488515;26;20081;-66
2024/04/15 08:23:53;;;;;;;7.03;3.33;;;;;;;20.75;37.31;94917.00;5488804;26;20006;-67
2024/04/15 08:26:18;;;;;;;6.93;3.13;;;;;;;20.43;38.35;94912.94;5486216;26;20002;-67
2024/04/15 08:28:44;;;;;;;7.65;3.58;;;;;;;20.43;37.53;94906.84;5486769;26;20442;-67
2024/04/15 08:31:10;;;;;;;6.78;3.47;;;;;;;20.37;37.59;94903.16;5487210;26;19994;-66
2024/04/15 08:33:36;;;;;;;7.22;3.33;;;;;;;20.55;37.34;94899.31;5487104;26;19994;-67
2024/04/15 08:36:01;;;;;;;8.65;3.30;;;;;;;20.38;37.91;94904.75;5456211;26;20013;-67
2024/04/15 08:38:26;;;;;;;6.43;3.40;;;;;;;20.52;37.89;94896.00;5488167;26;20071;-66
2024/04/15 08:40:56;;;;;;;9.88;3.45;;;;;;;20.68;37.45;94894.16;5488131;26;20070;-67
2024/04/15 08:43:25;;;;;;;7.93;3.50;;;;;;;21.16;37.04;94889.94;5457242;26;19990;-67
2024/04/15 08:45:52;;;;;;;5.93;3.53;;;;;;;21.17;37.66;94885.47;5486698;26;20005;-67
2024/04/15 08:48:17;;;;;;;8.50;3.58;;;;;;;21.78;36.83;94885.72;5456684;26;20018;-67
2024/04/15 08:50:42;;;;;;;11.95;3.40;;;;;;;21.58;36.17;94884.81;5456085;26;20534;-67
2024/04/15 08:53:08;;;;;;;7.15;3.90;;;;;;;21.34;37.32;94884.22;5488308;26;19990;-67
2024/04/15 08:55:33;;;;;;;8.30;3.72;;;;;;;21.38;36.74;94859.06;5488202;26;20019;-67
2024/04/15 08:57:59;;;;;;;5.77;3.80;;;;;;;22.04;35.89;94873.69;5485922;26;20035;-67
2024/04/15 09:00:24;;;;;;;8.70;3.40;;;;;;;22.51;34.90;94872.03;5486638;26;20682;-67
2024/04/15 09:02:51;;;;;;;8.60;3.63;;;;;;;22.73;34.23;94884.13;5455673;26;20002;-67
2024/04/15 09:05:17;;;;;;;8.98;3.53;;;;;;;22.18;35.93;94858.72;5486106;26;19994;-67
2024/04/15 09:07:42;;;;;;;9.45;3.55;;;;;;;22.44;35.11;94866.75;5487664;26;20439;-66
2024/04/15 09:10:08;;;;;;;8.38;3.72;;;;;;;22.57;35.57;94873.91;5455650;26;20378;-67
2024/04/15 09:12:38;;;;;;;6.85;3.50;;;;;;;22.61;34.77;94864.53;5455666;26;19990;-67
2024/04/15 09:15:04;;;;;;;8.27;3.63;;;;;;;22.85;34.81;94860.53;5485745;26;19994;-68
2024/04/15 09:17:30;;;;;;;9.88;3.60;;;;;;;22.87;34.69;94855.00;5487463;26;20456;-67
2024/04/15 09:19:56;;;;;;;7.07;3.72;;;;;;;22.90;35.96;94851.97;5455574;26;20070;-67
2024/04/15 09:22:30;;;;;;;13.98;4.43;;;;;;;22.69;35.33;94848.47;5425757;26;19991;-67
2024/04/15 09:24:55;;;;;;;11.15;3.80;;;;;;;22.50;35.35;94841.31;5487824;26;20018;-67
2024/04/15 09:27:24;;;;;;;8.15;4.57;;;;;;;23.14;35.03;94838.16;5455701;26;20091;-67
2024/04/15 09:29:50;;;;;;;10.18;3.70;;;;;;;23.11;34.33;94835.09;5487637;26;20005;-67
2024/04/15 09:32:15;;;;;;;7.85;3.85;;;;;;;22.94;34.14;94822.22;5485706;26;19990;-67
2024/04/15 09:34:40;;;;;;;8.35;4.05;;;;;;;23.16;34.81;94833.47;5487302;26;19994;-67
2024/04/15 09:37:07;;;;;;;11.93;4.13;;;;;;;23.10;33.93;94825.53;5455421;26;20030;-67
2024/04/15 09:39:32;;;;;;;10.48;4.05;;;;;;;23.03;33.46;94808.81;5459401;26;19997;-67
2024/04/15 09:41:58;;;;;;;7.25;3.92;;;;;;;22.86;33.57;94806.53;5459534;26;19990;-67
2024/04/15 09:44:23;;;;;;;7.60;4.28;;;;;;;22.90;34.29;94799.00;5459524;26;19990;-67
2024/04/15 09:46:49;;;;;;;6.50;4.30;;;;;;;23.08;32.87;94786.00;5459257;26;20002;-67
2024/04/15 09:49:14;;;;;;;7.68;4.13;;;;;;;23.45;33.56;94790.84;5459552;26;19994;-67
2024/04/15 09:51:41;;;;;;;12.63;4.53;;;;;;;23.41;33.83;94785.13;5458817;26;20313;-67
2024/04/15 09:54:08;;;;;;;10.43;3.83;;;;;;;23.38;33.30;94780.25;5489172;26;20443;-67
2024/04/15 09:56:37;;;;;;;7.30;3.58;;;;;;;23.41;33.74;94785.13;5458852;26;20327;-67
2024/04/15 09:59:05;;;;;;;7.07;3.95;;;;;;;23.33;33.22;94769.47;5460039;26;20005;-67
2024/04/15 10:01:31;;;;;;;7.55;3.88;;;;;;;23.50;33.70;94775.94;5459808;26;20013;-67
2024/04/15 10:04:04;;;;;;;11.32;3.90;;;;;;;23.57;33.76;94773.28;5458687;26;20026;-67
2024/04/15 10:07:02;;;;;;;10.77;3.85;;;;;;;23.61;32.84;94769.19;5458940;26;20001;-67
2024/04/15 10:09:28;;;;;;;10.15;3.95;;;;;;;23.58;32.71;94745.75;5400330;26;19986;-67
2024/04/15 10:11:53;;;;;;;8.80;3.95;;;;;;;23.80;32.98;94757.72;5489248;26;20409;-67
2024/04/15 10:14:19;;;;;;;9.95;4.03;;;;;;;23.82;32.33;94747.72;5489361;26;19990;-67
2024/04/15 10:16:46;;;;;;;5.53;3.33;;;;;;;23.87;31.97;94747.06;5458381;26;20424;-67
2024/04/15 10:19:11;;;;;;;8.48;3.80;;;;;;;24.00;31.67;94738.25;5488724;26;20385;-67
2024/04/15 10:21:37;;;;;;;7.32;3.58;;;;;;;24.02;31.76;94742.31;5490316;26;20002;-67
2024/04/15 10:24:03;;;;;;;5.70;3.33;;;;;;;24.25;32.34;94739.13;5488975;26;20339;-67
2024/04/15 10:26:29;;;;;;;9.73;3.67;;;;;;;24.27;32.57;94736.28;5490522;26;19990;-67
2024/04/15 10:29:16;;;;;;;12.98;4.18;;;;;;;24.41;30.54;94731.69;5458732;26;20054;-67
2024/04/15 10:31:41;;;;;;;7.60;3.50;;;;;;;24.63;30.81;94727.69;5490080;26;20018;-67
2024/04/15 10:34:06;;;;;;;8.20;3.80;;;;;;;24.85;30.53;94720.16;5490584;26;20113;-67
2024/04/15 10:36:35;;;;;;;12.15;3.90;;;;;;;24.74;30.83;94719.00;5490048;26;20005;-67
2024/04/15 10:39:03;;;;;;;14.20;3.72;;;;;;;24.71;31.44;94708.81;5490582;26;19990;-67
2024/04/15 10:41:29;;;;;;;7.00;3.45;;;;;;;25.03;29.58;94692.00;5488778;26;19998;-67
2024/04/15 10:43:54;;;;;;;8.48;3.85;;;;;;;25.10;30.28;94700.69;5428362;26;20006;-67
2024/04/15 10:46:19;;;;;;;8.43;4.50;;;;;;;24.81;31.07;94696.88;5488953;26;19998;-67
2024/04/15 10:48:45;;;;;;;9.55;3.83;;;;;;;24.94;30.02;94686.97;5458259;26;19990;-67
2024/04/15 10:51:10;;;;;;;14.50;3.95;;;;;;;25.09;29.42;94680.47;5490206;26;19998;-67
2024/04/15 10:53:36;;;;;;;10.77;4.00;;;;;;;25.16;29.93;94676.75;5490306;26;20363;-67
2024/04/15 10:56:01;;;;;;;7.22;4.22;;;;;;;25.09;28.94;94675.16;5490047;26;20005;-67
2024/04/15 10:58:26;;;;;;;8.35;3.95;;;;;;;25.09;29.29;94670.66;5488512;26;20528;-67
2024/04/15 11:00:52;;;;;;;11.40;3.58;;;;;;;25.31;28.25;94659.63;5488549;26;19994;-67
2024/04/15 11:03:17;;;;;;;7.38;3.55;;;;;;;25.53;28.05;94660.78;5487917;26;20001;-67
2024/04/15 11:05:43;;;;;;;9.00;3.60;;;;;;;25.56;28.69;94659.53;5490062;26;20015;-67
2024/04/15 11:08:09;;;;;;;6.55;3.95;;;;;;;25.60;27.86;94656.22;5489635;26;20441;-67
2024/04/15 11:10:37;;;;;;;10.30;3.83;;;;;;;25.64;27.39;94640.63;5490098;26;20286;-67
2024/04/15 11:13:03;;;;;;;7.00;3.88;;;;;;;25.92;27.00;94642.72;5489711;26;20005;-67
2024/04/15 11:15:28;;;;;;;7.43;3.95;;;;;;;25.97;26.68;94640.19;5490022;26;19990;-67
2024/04/15 11:17:54;;;;;;;6.45;3.80;;;;;;;26.14;26.17;94634.22;5489467;26;20002;-67
2024/04/15 11:20:23;;;;;;;9.98;4.47;;;;;;;26.12;25.35;94637.09;5489866;26;20005;-68
2024/04/15 11:22:49;;;;;;;10.52;4.00;;;;;;;26.14;26.54;94628.91;5458015;26;20455;-67
2024/04/15 11:25:15;;;;;;;8.18;3.80;;;;;;;26.52;26.06;94620.50;5428005;26;20002;-67
2024/04/15 11:27:43;;;;;;;9.32;4.20;;;;;;;26.67;26.15;94614.75;5457303;26;20001;-67
2024/04/15 11:30:10;;;;;;;8.57;4.13;;;;;;;26.70;25.45;94604.44;5457783;26;19990;-68
2024/04/15 11:32:36;;;;;;;7.25;3.70;;;;;;;27.02;24.96;94593.38;5457839;26;19994;-67
2024/04/15 11:35:03;;;;;;;7.13;3.90;;;;;;;27.03;24.36;94586.22;5457349;26;20379;-67
2024/04/15 11:37:28;;;;;;;5.68;3.45;;;;;;;27.08;22.30;94584.47;5457368;26;20009;-67
2024/04/15 11:39:54;;;;;;;7.60;3.97;;;;;;;27.27;22.37;94587.00;5457500;26;20518;-67
2024/04/15 11:42:19;;;;;;;4.50;3.30;;;;;;;27.32;21.94;94579.09;5457407;26;20010;-67
2024/04/15 11:44:44;;;;;;;5.80;3.45;;;;;;;27.63;20.78;94559.94;5488224;26;20009;-67
2024/04/15 11:47:14;;;;;;;6.45;3.53;;;;;;;27.68;21.04;94555.78;5487898;26;20388;-67
2024/04/15 11:49:40;;;;;;;4.72;3.53;;;;;;;27.74;21.02;94555.59;5489829;26;20021;-67
2024/04/15 11:52:06;;;;;;;5.28;3.67;;;;;;;27.85;20.80;94553.97;5457338;26;20333;-67
2024/04/15 11:54:31;;;;;;;5.95;3.88;;;;;;;27.83;21.70;94543.56;5487975;26;20336;-67